sensor_id;sensor_type;location;lat;lon;timestamp;P1;durP1;ratioP1;P2;durP2;ratioP2
10902;SDS011;5504;47.312;11.060;2022-08-07T00:01:00;6.97;;;6.27;;
10902;SDS011;5504;47.312;11.060;2022-08-07T00:03:25;6.50;;;5.97;;
10902;SDS011;5504;47.312;11.060;2022-08-07T00:05:53;7.17;;;6.47;;
10902;SDS011;5504;47.312;11.060;2022-08-07T00:08:19;7.40;;;6.60;;
10902;SDS011;5504;47.312;11.060;2022-08-07T00:10:47;8.13;;;6.90;;
10902;SDS011;5504;47.312;11.060;2022-08-07T00:13:13;7.20;;;6.40;;
10902;SDS011;5504;47.312;11.060;2022-08-07T00:15:40;7.97;;;6.83;;
10902;SDS011;5504;47.312;11.060;2022-08-07T00:18:05;7.93;;;7.18;;
10902;SDS011;5504;47.312;11.060;2022-08-07T00:20:33;6.57;;;5.97;;
10902;SDS011;5504;47.312;11.060;2022-08-07T00:22:59;7.70;;;6.90;;
10902;SDS011;5504;47.312;11.060;2022-08-07T00:25:25;6.87;;;6.27;;
10902;SDS011;5504;47.312;11.060;2022-08-07T00:27:51;7.87;;;6.97;;
10902;SDS011;5504;47.312;11.060;2022-08-07T00:30:17;7.63;;;6.90;;
10902;SDS011;5504;47.312;11.060;2022-08-07T00:32:46;7.87;;;6.90;;
10902;SDS011;5504;47.312;11.060;2022-08-07T00:35:12;7.07;;;6.47;;
10902;SDS011;5504;47.312;11.060;2022-08-07T00:37:38;7.30;;;6.60;;
10902;SDS011;5504;47.312;11.060;2022-08-07T00:40:03;6.50;;;5.87;;
10902;SDS011;5504;47.312;11.060;2022-08-07T00:42:31;6.40;;;5.90;;
10902;SDS011;5504;47.312;11.060;2022-08-07T00:44:57;6.27;;;5.67;;
10902;SDS011;5504;47.312;11.060;2022-08-07T00:47:23;7.30;;;6.10;;
10902;SDS011;5504;47.312;11.060;2022-08-07T00:49:49;6.80;;;6.20;;
10902;SDS011;5504;47.312;11.060;2022-08-07T00:52:14;6.30;;;5.70;;
10902;SDS011;5504;47.312;11.060;2022-08-07T00:54:40;6.60;;;5.63;;
10902;SDS011;5504;47.312;11.060;2022-08-07T00:57:06;6.78;;;6.13;;
10902;SDS011;5504;47.312;11.060;2022-08-07T00:59:34;6.72;;;6.13;;
10902;SDS011;5504;47.312;11.060;2022-08-07T01:02:02;6.82;;;5.50;;
10902;SDS011;5504;47.312;11.060;2022-08-07T01:04:31;7.93;;;6.82;;
10902;SDS011;5504;47.312;11.060;2022-08-07T01:06:57;6.63;;;6.00;;
10902;SDS011;5504;47.312;11.060;2022-08-07T01:09:23;7.43;;;6.72;;
10902;SDS011;5504;47.312;11.060;2022-08-07T01:11:50;7.28;;;6.57;;
10902;SDS011;5504;47.312;11.060;2022-08-07T01:14:17;7.40;;;6.70;;
10902;SDS011;5504;47.312;11.060;2022-08-07T01:16:47;7.82;;;7.13;;
10902;SDS011;5504;47.312;11.060;2022-08-07T01:19:14;7.97;;;7.17;;
10902;SDS011;5504;47.312;11.060;2022-08-07T01:21:41;8.07;;;7.27;;
10902;SDS011;5504;47.312;11.060;2022-08-07T01:24:07;8.70;;;7.80;;
10902;SDS011;5504;47.312;11.060;2022-08-07T01:26:33;8.70;;;7.90;;
10902;SDS011;5504;47.312;11.060;2022-08-07T01:29:00;8.53;;;7.73;;
10902;SDS011;5504;47.312;11.060;2022-08-07T01:31:26;8.80;;;7.87;;
10902;SDS011;5504;47.312;11.060;2022-08-07T01:33:59;7.75;;;7.05;;
10902;SDS011;5504;47.312;11.060;2022-08-07T01:36:26;8.00;;;7.20;;
10902;SDS011;5504;47.312;11.060;2022-08-07T01:38:53;7.97;;;7.27;;
10902;SDS011;5504;47.312;11.060;2022-08-07T01:41:21;8.50;;;7.60;;
10902;SDS011;5504;47.312;11.060;2022-08-07T01:43:47;9.27;;;7.97;;
10902;SDS011;5504;47.312;11.060;2022-08-07T01:46:14;8.53;;;7.63;;
10902;SDS011;5504;47.312;11.060;2022-08-07T01:48:44;8.40;;;7.60;;
10902;SDS011;5504;47.312;11.060;2022-08-07T01:51:12;8.47;;;7.67;;
10902;SDS011;5504;47.312;11.060;2022-08-07T01:53:43;8.90;;;7.80;;
10902;SDS011;5504;47.312;11.060;2022-08-07T01:56:13;9.70;;;7.38;;
10902;SDS011;5504;47.312;11.060;2022-08-07T01:58:43;8.47;;;7.67;;
10902;SDS011;5504;47.312;11.060;2022-08-07T02:01:21;8.60;;;7.70;;
10902;SDS011;5504;47.312;11.060;2022-08-07T02:03:57;8.00;;;7.25;;
10902;SDS011;5504;47.312;11.060;2022-08-07T02:06:28;8.00;;;7.20;;
10902;SDS011;5504;47.312;11.060;2022-08-07T02:08:56;9.00;;;7.40;;
10902;SDS011;5504;47.312;11.060;2022-08-07T02:11:24;8.50;;;7.60;;
10902;SDS011;5504;47.312;11.060;2022-08-07T02:13:50;9.00;;;8.10;;
10902;SDS011;5504;47.312;11.060;2022-08-07T02:16:19;9.13;;;7.90;;
10902;SDS011;5504;47.312;11.060;2022-08-07T02:18:48;9.97;;;8.73;;
10902;SDS011;5504;47.312;11.060;2022-08-07T02:21:14;8.73;;;7.93;;
10902;SDS011;5504;47.312;11.060;2022-08-07T02:23:42;10.07;;;8.50;;
10902;SDS011;5504;47.312;11.060;2022-08-07T02:26:08;9.07;;;8.13;;
10902;SDS011;5504;47.312;11.060;2022-08-07T02:28:35;8.63;;;7.83;;
10902;SDS011;5504;47.312;11.060;2022-08-07T02:31:02;9.50;;;8.60;;
10902;SDS011;5504;47.312;11.060;2022-08-07T02:33:30;8.53;;;7.63;;
10902;SDS011;5504;47.312;11.060;2022-08-07T02:35:57;8.20;;;7.37;;
10902;SDS011;5504;47.312;11.060;2022-08-07T02:38:27;8.77;;;7.13;;
10902;SDS011;5504;47.312;11.060;2022-08-07T02:40:55;8.27;;;7.47;;
10902;SDS011;5504;47.312;11.060;2022-08-07T02:43:23;8.57;;;7.57;;
10902;SDS011;5504;47.312;11.060;2022-08-07T02:45:51;8.70;;;7.90;;
10902;SDS011;5504;47.312;11.060;2022-08-07T02:48:18;8.80;;;8.00;;
10902;SDS011;5504;47.312;11.060;2022-08-07T02:50:45;8.80;;;7.90;;
10902;SDS011;5504;47.312;11.060;2022-08-07T02:53:20;9.27;;;8.37;;
10902;SDS011;5504;47.312;11.060;2022-08-07T02:55:52;8.82;;;7.95;;
10902;SDS011;5504;47.312;11.060;2022-08-07T02:58:22;9.15;;;8.25;;
10902;SDS011;5504;47.312;11.060;2022-08-07T03:00:49;10.33;;;9.23;;
10902;SDS011;5504;47.312;11.060;2022-08-07T03:03:16;10.07;;;9.15;;
10902;SDS011;5504;47.312;11.060;2022-08-07T03:05:44;10.35;;;9.20;;
10902;SDS011;5504;47.312;11.060;2022-08-07T03:08:11;10.10;;;9.10;;
10902;SDS011;5504;47.312;11.060;2022-08-07T03:10:37;9.65;;;8.75;;
10902;SDS011;5504;47.312;11.060;2022-08-07T03:13:04;9.18;;;8.32;;
10902;SDS011;5504;47.312;11.060;2022-08-07T03:15:31;8.80;;;7.90;;
10902;SDS011;5504;47.312;11.060;2022-08-07T03:17:58;8.38;;;7.50;;
10902;SDS011;5504;47.312;11.060;2022-08-07T03:20:24;10.63;;;8.00;;
10902;SDS011;5504;47.312;11.060;2022-08-07T03:22:51;8.93;;;8.03;;
10902;SDS011;5504;47.312;11.060;2022-08-07T03:25:17;10.48;;;8.25;;
10902;SDS011;5504;47.312;11.060;2022-08-07T03:27:45;8.80;;;8.00;;
10902;SDS011;5504;47.312;11.060;2022-08-07T03:30:12;9.43;;;8.53;;
10902;SDS011;5504;47.312;11.060;2022-08-07T03:32:39;10.23;;;9.32;;
10902;SDS011;5504;47.312;11.060;2022-08-07T03:35:08;10.23;;;9.23;;
10902;SDS011;5504;47.312;11.060;2022-08-07T03:37:44;9.20;;;8.38;;
10902;SDS011;5504;47.312;11.060;2022-08-07T03:40:20;9.60;;;8.73;;
10902;SDS011;5504;47.312;11.060;2022-08-07T03:42:48;10.10;;;9.10;;
10902;SDS011;5504;47.312;11.060;2022-08-07T03:45:15;9.38;;;8.48;;
10902;SDS011;5504;47.312;11.060;2022-08-07T03:47:42;9.85;;;8.95;;
10902;SDS011;5504;47.312;11.060;2022-08-07T03:50:08;12.60;;;9.80;;
10902;SDS011;5504;47.312;11.060;2022-08-07T03:52:34;10.70;;;9.65;;
10902;SDS011;5504;47.312;11.060;2022-08-07T03:55:01;10.48;;;9.48;;
10902;SDS011;5504;47.312;11.060;2022-08-07T03:57:28;9.50;;;8.50;;
10902;SDS011;5504;47.312;11.060;2022-08-07T03:59:55;10.43;;;9.23;;
10902;SDS011;5504;47.312;11.060;2022-08-07T04:02:21;10.40;;;9.05;;
10902;SDS011;5504;47.312;11.060;2022-08-07T04:04:48;9.80;;;8.80;;
10902;SDS011;5504;47.312;11.060;2022-08-07T04:07:17;10.27;;;9.27;;
10902;SDS011;5504;47.312;11.060;2022-08-07T04:09:46;10.33;;;9.33;;
10902;SDS011;5504;47.312;11.060;2022-08-07T04:12:13;9.65;;;8.63;;
10902;SDS011;5504;47.312;11.060;2022-08-07T04:14:40;9.67;;;8.67;;
10902;SDS011;5504;47.312;11.060;2022-08-07T04:17:07;10.00;;;8.97;;
10902;SDS011;5504;47.312;11.060;2022-08-07T04:19:33;10.05;;;9.15;;
10902;SDS011;5504;47.312;11.060;2022-08-07T04:21:59;9.97;;;9.07;;
10902;SDS011;5504;47.312;11.060;2022-08-07T04:24:26;10.15;;;9.15;;
10902;SDS011;5504;47.312;11.060;2022-08-07T04:26:52;10.17;;;9.17;;
10902;SDS011;5504;47.312;11.060;2022-08-07T04:29:18;9.85;;;8.70;;
10902;SDS011;5504;47.312;11.060;2022-08-07T04:31:44;9.80;;;8.80;;
10902;SDS011;5504;47.312;11.060;2022-08-07T04:34:11;9.80;;;8.80;;
10902;SDS011;5504;47.312;11.060;2022-08-07T04:36:37;9.70;;;8.80;;
10902;SDS011;5504;47.312;11.060;2022-08-07T04:39:04;9.35;;;8.45;;
10902;SDS011;5504;47.312;11.060;2022-08-07T04:41:30;9.13;;;8.30;;
10902;SDS011;5504;47.312;11.060;2022-08-07T04:43:56;9.20;;;8.35;;
10902;SDS011;5504;47.312;11.060;2022-08-07T04:46:29;9.73;;;8.40;;
10902;SDS011;5504;47.312;11.060;2022-08-07T04:49:37;10.38;;;9.45;;
10902;SDS011;5504;47.312;11.060;2022-08-07T04:55:00;9.65;;;8.75;;
10902;SDS011;5504;47.312;11.060;2022-08-07T04:57:40;9.75;;;8.85;;
10902;SDS011;5504;47.312;11.060;2022-08-07T05:00:15;9.73;;;8.77;;
10902;SDS011;5504;47.312;11.060;2022-08-07T05:05:16;10.00;;;9.10;;
10902;SDS011;5504;47.312;11.060;2022-08-07T05:08:14;9.70;;;8.80;;
10902;SDS011;5504;47.312;11.060;2022-08-07T05:10:47;8.60;;;7.80;;
10902;SDS011;5504;47.312;11.060;2022-08-07T05:13:31;9.55;;;8.55;;
10902;SDS011;5504;47.312;11.060;2022-08-07T05:16:06;9.57;;;8.77;;
10902;SDS011;5504;47.312;11.060;2022-08-07T05:18:37;9.80;;;8.90;;
10902;SDS011;5504;47.312;11.060;2022-08-07T05:21:08;8.68;;;7.88;;
10902;SDS011;5504;47.312;11.060;2022-08-07T05:23:48;9.00;;;7.85;;
10902;SDS011;5504;47.312;11.060;2022-08-07T05:26:20;8.10;;;7.40;;
10902;SDS011;5504;47.312;11.060;2022-08-07T05:28:49;8.48;;;7.68;;
10902;SDS011;5504;47.312;11.060;2022-08-07T05:31:21;8.13;;;7.32;;
10902;SDS011;5504;47.312;11.060;2022-08-07T05:33:50;8.50;;;7.70;;
10902;SDS011;5504;47.312;11.060;2022-08-07T05:36:18;7.75;;;6.95;;
10902;SDS011;5504;47.312;11.060;2022-08-07T05:38:46;8.57;;;7.70;;
10902;SDS011;5504;47.312;11.060;2022-08-07T05:41:13;7.00;;;6.35;;
10902;SDS011;5504;47.312;11.060;2022-08-07T05:43:40;7.82;;;7.05;;
10902;SDS011;5504;47.312;11.060;2022-08-07T05:46:10;7.15;;;6.35;;
10902;SDS011;5504;47.312;11.060;2022-08-07T05:48:36;7.07;;;6.47;;
10902;SDS011;5504;47.312;11.060;2022-08-07T05:51:04;7.30;;;6.55;;
10902;SDS011;5504;47.312;11.060;2022-08-07T05:53:31;7.63;;;6.93;;
10902;SDS011;5504;47.312;11.060;2022-08-07T05:55:57;7.88;;;7.15;;
10902;SDS011;5504;47.312;11.060;2022-08-07T05:58:23;8.07;;;7.28;;
10902;SDS011;5504;47.312;11.060;2022-08-07T06:00:51;7.55;;;6.85;;
10902;SDS011;5504;47.312;11.060;2022-08-07T06:03:21;7.95;;;7.20;;
10902;SDS011;5504;47.312;11.060;2022-08-07T06:05:48;6.68;;;6.07;;
10902;SDS011;5504;47.312;11.060;2022-08-07T06:08:17;6.93;;;6.32;;
10902;SDS011;5504;47.312;11.060;2022-08-07T06:10:43;9.25;;;6.90;;
10902;SDS011;5504;47.312;11.060;2022-08-07T06:13:10;6.80;;;6.22;;
10902;SDS011;5504;47.312;11.060;2022-08-07T06:15:36;7.25;;;6.55;;
10902;SDS011;5504;47.312;11.060;2022-08-07T06:18:05;7.82;;;7.13;;
10902;SDS011;5504;47.312;11.060;2022-08-07T06:20:33;6.80;;;6.20;;
10902;SDS011;5504;47.312;11.060;2022-08-07T06:23:01;7.13;;;6.40;;
10902;SDS011;5504;47.312;11.060;2022-08-07T06:25:32;8.05;;;7.25;;
10902;SDS011;5504;47.312;11.060;2022-08-07T06:28:04;7.38;;;6.68;;
10902;SDS011;5504;47.312;11.060;2022-08-07T06:30:34;7.70;;;6.93;;
10902;SDS011;5504;47.312;11.060;2022-08-07T06:33:01;7.50;;;6.80;;
10902;SDS011;5504;47.312;11.060;2022-08-07T06:35:27;7.15;;;6.45;;
10902;SDS011;5504;47.312;11.060;2022-08-07T06:37:54;6.80;;;6.20;;
10902;SDS011;5504;47.312;11.060;2022-08-07T06:40:21;6.93;;;6.00;;
10902;SDS011;5504;47.312;11.060;2022-08-07T06:42:47;7.65;;;6.95;;
10902;SDS011;5504;47.312;11.060;2022-08-07T06:45:14;7.47;;;6.78;;
10902;SDS011;5504;47.312;11.060;2022-08-07T06:47:42;8.20;;;7.47;;
10902;SDS011;5504;47.312;11.060;2022-08-07T06:50:08;7.55;;;6.85;;
10902;SDS011;5504;47.312;11.060;2022-08-07T06:52:36;8.27;;;7.47;;
10902;SDS011;5504;47.312;11.060;2022-08-07T06:55:17;7.65;;;6.95;;
10902;SDS011;5504;47.312;11.060;2022-08-07T06:57:46;8.27;;;7.53;;
10902;SDS011;5504;47.312;11.060;2022-08-07T07:00:14;7.82;;;7.10;;
10902;SDS011;5504;47.312;11.060;2022-08-07T07:02:40;7.40;;;6.70;;
10902;SDS011;5504;47.312;11.060;2022-08-07T07:05:07;7.32;;;6.72;;
10902;SDS011;5504;47.312;11.060;2022-08-07T07:07:33;6.97;;;6.38;;
10902;SDS011;5504;47.312;11.060;2022-08-07T07:09:59;7.25;;;6.63;;
10902;SDS011;5504;47.312;11.060;2022-08-07T07:15:26;7.15;;;6.45;;
10902;SDS011;5504;47.312;11.060;2022-08-07T07:20:36;7.25;;;6.00;;
10902;SDS011;5504;47.312;11.060;2022-08-07T07:23:03;6.55;;;5.95;;
10902;SDS011;5504;47.312;11.060;2022-08-07T07:25:30;6.13;;;5.60;;
10902;SDS011;5504;47.312;11.060;2022-08-07T07:28:20;5.85;;;5.32;;
10902;SDS011;5504;47.312;11.060;2022-08-07T07:30:47;5.53;;;5.03;;
10902;SDS011;5504;47.312;11.060;2022-08-07T07:33:24;5.72;;;5.22;;
10902;SDS011;5504;47.312;11.060;2022-08-07T07:35:52;5.47;;;4.95;;
10902;SDS011;5504;47.312;11.060;2022-08-07T07:38:19;5.20;;;4.70;;
10902;SDS011;5504;47.312;11.060;2022-08-07T07:40:47;5.30;;;4.90;;
10902;SDS011;5504;47.312;11.060;2022-08-07T07:43:15;5.45;;;5.05;;
10902;SDS011;5504;47.312;11.060;2022-08-07T07:45:42;6.38;;;4.95;;
10902;SDS011;5504;47.312;11.060;2022-08-07T07:48:11;5.10;;;4.60;;
10902;SDS011;5504;47.312;11.060;2022-08-07T07:50:39;3.92;;;3.63;;
10902;SDS011;5504;47.312;11.060;2022-08-07T07:53:06;3.90;;;3.53;;
10902;SDS011;5504;47.312;11.060;2022-08-07T07:55:33;3.85;;;3.58;;
10902;SDS011;5504;47.312;11.060;2022-08-07T07:58:00;3.80;;;3.50;;
10902;SDS011;5504;47.312;11.060;2022-08-07T08:00:27;4.20;;;3.80;;
10902;SDS011;5504;47.312;11.060;2022-08-07T08:02:55;3.90;;;3.60;;
10902;SDS011;5504;47.312;11.060;2022-08-07T08:05:23;3.97;;;3.65;;
10902;SDS011;5504;47.312;11.060;2022-08-07T08:07:49;3.85;;;3.55;;
10902;SDS011;5504;47.312;11.060;2022-08-07T08:10:15;3.28;;;3.08;;
10902;SDS011;5504;47.312;11.060;2022-08-07T08:12:43;3.72;;;3.30;;
10902;SDS011;5504;47.312;11.060;2022-08-07T08:15:10;3.45;;;3.15;;
10902;SDS011;5504;47.312;11.060;2022-08-07T08:17:36;3.75;;;3.45;;
10902;SDS011;5504;47.312;11.060;2022-08-07T08:20:07;3.92;;;3.63;;
10902;SDS011;5504;47.312;11.060;2022-08-07T08:22:38;2.92;;;2.72;;
10902;SDS011;5504;47.312;11.060;2022-08-07T08:25:24;3.20;;;2.90;;
10902;SDS011;5504;47.312;11.060;2022-08-07T08:28:11;3.40;;;3.13;;
10902;SDS011;5504;47.312;11.060;2022-08-07T08:30:43;2.80;;;2.60;;
10902;SDS011;5504;47.312;11.060;2022-08-07T08:33:10;3.25;;;3.05;;
10902;SDS011;5504;47.312;11.060;2022-08-07T08:35:43;2.90;;;2.70;;
10902;SDS011;5504;47.312;11.060;2022-08-07T08:38:11;2.42;;;2.25;;
10902;SDS011;5504;47.312;11.060;2022-08-07T08:40:40;2.80;;;2.60;;
10902;SDS011;5504;47.312;11.060;2022-08-07T08:43:37;2.92;;;2.60;;
10902;SDS011;5504;47.312;11.060;2022-08-07T08:52:11;2.70;;;2.50;;
10902;SDS011;5504;47.312;11.060;2022-08-07T08:54:58;2.47;;;2.28;;
10902;SDS011;5504;47.312;11.060;2022-08-07T08:57:43;2.10;;;2.00;;
10902;SDS011;5504;47.312;11.060;2022-08-07T09:00:35;2.40;;;2.30;;
10902;SDS011;5504;47.312;11.060;2022-08-07T09:03:18;2.53;;;2.40;;
10902;SDS011;5504;47.312;11.060;2022-08-07T09:05:55;2.10;;;2.00;;
10902;SDS011;5504;47.312;11.060;2022-08-07T09:11:38;2.20;;;2.10;;
10902;SDS011;5504;47.312;11.060;2022-08-07T09:16:26;2.05;;;1.95;;
10902;SDS011;5504;47.312;11.060;2022-08-07T09:19:23;1.90;;;1.80;;
10902;SDS011;5504;47.312;11.060;2022-08-07T09:22:02;1.90;;;1.80;;
10902;SDS011;5504;47.312;11.060;2022-08-07T09:40:12;2.20;;;2.10;;
10902;SDS011;5504;47.312;11.060;2022-08-07T09:42:59;2.20;;;2.00;;
10902;SDS011;5504;47.312;11.060;2022-08-07T09:45:46;2.50;;;2.30;;
10902;SDS011;5504;47.312;11.060;2022-08-07T09:51:37;1.90;;;1.80;;
10902;SDS011;5504;47.312;11.060;2022-08-07T09:54:06;1.70;;;1.60;;
10902;SDS011;5504;47.312;11.060;2022-08-07T10:10:51;2.25;;;2.15;;
10902;SDS011;5504;47.312;11.060;2022-08-07T10:18:58;6.78;;;6.20;;
10902;SDS011;5504;47.312;11.060;2022-08-07T10:30:07;2.00;;;1.90;;
10902;SDS011;5504;47.312;11.060;2022-08-07T10:38:04;1.88;;;1.77;;
10902;SDS011;5504;47.312;11.060;2022-08-07T10:40:59;1.77;;;1.67;;
10902;SDS011;5504;47.312;11.060;2022-08-07T10:43:40;1.70;;;1.60;;
10902;SDS011;5504;47.312;11.060;2022-08-07T10:46:15;1.98;;;1.80;;
10902;SDS011;5504;47.312;11.060;2022-08-07T10:48:54;1.98;;;1.88;;
10902;SDS011;5504;47.312;11.060;2022-08-07T10:54:55;1.80;;;1.70;;
10902;SDS011;5504;47.312;11.060;2022-08-07T11:00:08;2.13;;;2.03;;
10902;SDS011;5504;47.312;11.060;2022-08-07T11:13:41;2.10;;;2.00;;
10902;SDS011;5504;47.312;11.060;2022-08-07T11:21:43;2.33;;;2.22;;
10902;SDS011;5504;47.312;11.060;2022-08-07T11:30:18;2.08;;;1.98;;
10902;SDS011;5504;47.312;11.060;2022-08-07T11:33:05;2.00;;;1.90;;
10902;SDS011;5504;47.312;11.060;2022-08-07T11:35:45;2.20;;;1.90;;
10902;SDS011;5504;47.312;11.060;2022-08-07T11:41:05;2.30;;;2.20;;
10902;SDS011;5504;47.312;11.060;2022-08-07T11:43:57;2.00;;;1.90;;
10902;SDS011;5504;47.312;11.060;2022-08-07T11:49:24;2.00;;;1.90;;
10902;SDS011;5504;47.312;11.060;2022-08-07T11:57:52;2.40;;;2.15;;
10902;SDS011;5504;47.312;11.060;2022-08-07T12:00:31;1.90;;;1.80;;
10902;SDS011;5504;47.312;11.060;2022-08-07T12:11:34;2.00;;;1.90;;
10902;SDS011;5504;47.312;11.060;2022-08-07T12:14:19;2.10;;;2.00;;
10902;SDS011;5504;47.312;11.060;2022-08-07T12:16:52;2.30;;;2.20;;
10902;SDS011;5504;47.312;11.060;2022-08-07T12:22:12;2.10;;;2.00;;
10902;SDS011;5504;47.312;11.060;2022-08-07T12:27:43;2.17;;;2.08;;
10902;SDS011;5504;47.312;11.060;2022-08-07T12:30:12;1.98;;;1.88;;
10902;SDS011;5504;47.312;11.060;2022-08-07T12:32:49;2.13;;;2.03;;
10902;SDS011;5504;47.312;11.060;2022-08-07T12:35:22;2.20;;;2.10;;
10902;SDS011;5504;47.312;11.060;2022-08-07T12:37:49;2.20;;;2.10;;
10902;SDS011;5504;47.312;11.060;2022-08-07T12:40:18;2.10;;;2.00;;
10902;SDS011;5504;47.312;11.060;2022-08-07T12:42:49;2.25;;;2.05;;
10902;SDS011;5504;47.312;11.060;2022-08-07T12:45:19;2.10;;;2.00;;
10902;SDS011;5504;47.312;11.060;2022-08-07T12:50:35;1.83;;;1.73;;
10902;SDS011;5504;47.312;11.060;2022-08-07T12:58:36;1.90;;;1.80;;
10902;SDS011;5504;47.312;11.060;2022-08-07T13:04:08;2.08;;;1.98;;
10902;SDS011;5504;47.312;11.060;2022-08-07T13:20:46;1.80;;;1.70;;
10902;SDS011;5504;47.312;11.060;2022-08-07T13:23:28;1.98;;;1.77;;
10902;SDS011;5504;47.312;11.060;2022-08-07T13:26:04;1.90;;;1.80;;
10902;SDS011;5504;47.312;11.060;2022-08-07T13:28:47;2.10;;;2.00;;
10902;SDS011;5504;47.312;11.060;2022-08-07T13:31:21;2.33;;;2.13;;
10902;SDS011;5504;47.312;11.060;2022-08-07T13:33:56;2.10;;;2.00;;
10902;SDS011;5504;47.312;11.060;2022-08-07T13:36:31;2.00;;;1.90;;
10902;SDS011;5504;47.312;11.060;2022-08-07T13:39:09;2.40;;;2.30;;
10902;SDS011;5504;47.312;11.060;2022-08-07T13:44:17;2.58;;;2.38;;
10902;SDS011;5504;47.312;11.060;2022-08-07T13:46:46;2.22;;;2.13;;
10902;SDS011;5504;47.312;11.060;2022-08-07T13:49:18;2.40;;;2.30;;
10902;SDS011;5504;47.312;11.060;2022-08-07T13:51:46;2.92;;;2.63;;
10902;SDS011;5504;47.312;11.060;2022-08-07T13:54:14;3.00;;;2.80;;
10902;SDS011;5504;47.312;11.060;2022-08-07T13:56:42;2.80;;;2.60;;
10902;SDS011;5504;47.312;11.060;2022-08-07T13:59:22;3.28;;;3.08;;
10902;SDS011;5504;47.312;11.060;2022-08-07T14:01:54;3.10;;;2.90;;
10902;SDS011;5504;47.312;11.060;2022-08-07T14:04:53;3.10;;;2.90;;
10902;SDS011;5504;47.312;11.060;2022-08-07T14:07:29;2.65;;;2.45;;
10902;SDS011;5504;47.312;11.060;2022-08-07T14:09:58;3.22;;;3.03;;
10902;SDS011;5504;47.312;11.060;2022-08-07T14:12:33;3.30;;;3.10;;
10902;SDS011;5504;47.312;11.060;2022-08-07T14:15:04;3.00;;;2.80;;
10902;SDS011;5504;47.312;11.060;2022-08-07T14:17:34;3.53;;;3.33;;
10902;SDS011;5504;47.312;11.060;2022-08-07T14:20:10;3.50;;;3.30;;
10902;SDS011;5504;47.312;11.060;2022-08-07T14:22:50;3.25;;;3.05;;
10902;SDS011;5504;47.312;11.060;2022-08-07T14:25:22;3.40;;;3.20;;
10902;SDS011;5504;47.312;11.060;2022-08-07T14:27:52;3.60;;;3.40;;
10902;SDS011;5504;47.312;11.060;2022-08-07T14:30:19;3.47;;;3.28;;
10902;SDS011;5504;47.312;11.060;2022-08-07T14:32:49;3.05;;;2.85;;
10902;SDS011;5504;47.312;11.060;2022-08-07T14:35:28;3.67;;;3.47;;
10902;SDS011;5504;47.312;11.060;2022-08-07T14:37:58;3.65;;;3.35;;
10902;SDS011;5504;47.312;11.060;2022-08-07T14:40:27;3.70;;;3.40;;
10902;SDS011;5504;47.312;11.060;2022-08-07T14:43:09;3.67;;;3.47;;
10902;SDS011;5504;47.312;11.060;2022-08-07T14:45:50;4.18;;;3.78;;
10902;SDS011;5504;47.312;11.060;2022-08-07T14:48:19;3.75;;;3.47;;
10902;SDS011;5504;47.312;11.060;2022-08-07T14:50:51;3.88;;;3.58;;
10902;SDS011;5504;47.312;11.060;2022-08-07T14:53:18;3.63;;;3.33;;
10902;SDS011;5504;47.312;11.060;2022-08-07T14:55:46;3.67;;;3.47;;
10902;SDS011;5504;47.312;11.060;2022-08-07T14:58:13;3.63;;;3.38;;
10902;SDS011;5504;47.312;11.060;2022-08-07T15:00:42;3.30;;;3.10;;
10902;SDS011;5504;47.312;11.060;2022-08-07T15:03:11;3.38;;;3.17;;
10902;SDS011;5504;47.312;11.060;2022-08-07T15:05:38;3.75;;;3.55;;
10902;SDS011;5504;47.312;11.060;2022-08-07T15:08:07;3.50;;;3.30;;
10902;SDS011;5504;47.312;11.060;2022-08-07T15:10:38;3.80;;;3.50;;
10902;SDS011;5504;47.312;11.060;2022-08-07T15:13:23;4.10;;;3.80;;
10902;SDS011;5504;47.312;11.060;2022-08-07T15:15:52;4.00;;;3.60;;
10902;SDS011;5504;47.312;11.060;2022-08-07T15:18:32;3.95;;;3.65;;
10902;SDS011;5504;47.312;11.060;2022-08-07T15:21:06;3.65;;;3.45;;
10902;SDS011;5504;47.312;11.060;2022-08-07T15:23:37;3.80;;;3.50;;
10902;SDS011;5504;47.312;11.060;2022-08-07T15:26:04;4.13;;;3.80;;
10902;SDS011;5504;47.312;11.060;2022-08-07T15:28:33;4.10;;;3.72;;
10902;SDS011;5504;47.312;11.060;2022-08-07T15:31:03;3.90;;;3.60;;
10902;SDS011;5504;47.312;11.060;2022-08-07T15:33:33;4.53;;;4.22;;
10902;SDS011;5504;47.312;11.060;2022-08-07T15:36:02;4.18;;;3.88;;
10902;SDS011;5504;47.312;11.060;2022-08-07T15:38:32;4.30;;;4.00;;
10902;SDS011;5504;47.312;11.060;2022-08-07T15:41:11;3.75;;;3.53;;
10902;SDS011;5504;47.312;11.060;2022-08-07T15:43:41;4.18;;;3.88;;
10902;SDS011;5504;47.312;11.060;2022-08-07T15:46:17;4.57;;;4.25;;
10902;SDS011;5504;47.312;11.060;2022-08-07T15:48:45;4.18;;;3.88;;
10902;SDS011;5504;47.312;11.060;2022-08-07T15:51:13;4.00;;;3.70;;
10902;SDS011;5504;47.312;11.060;2022-08-07T15:53:50;4.07;;;3.83;;
10902;SDS011;5504;47.312;11.060;2022-08-07T15:56:18;3.90;;;3.55;;
10902;SDS011;5504;47.312;11.060;2022-08-07T16:01:22;4.47;;;4.18;;
10902;SDS011;5504;47.312;11.060;2022-08-07T16:03:52;4.32;;;4.00;;
10902;SDS011;5504;47.312;11.060;2022-08-07T16:06:36;4.60;;;4.20;;
10902;SDS011;5504;47.312;11.060;2022-08-07T16:14:35;4.40;;;4.00;;
10902;SDS011;5504;47.312;11.060;2022-08-07T16:27:59;3.72;;;3.53;;
10902;SDS011;5504;47.312;11.060;2022-08-07T16:30:31;3.92;;;3.60;;
10902;SDS011;5504;47.312;11.060;2022-08-07T16:33:06;4.30;;;4.00;;
10902;SDS011;5504;47.312;11.060;2022-08-07T16:35:37;4.05;;;3.72;;
10902;SDS011;5504;47.312;11.060;2022-08-07T17:00:59;5.18;;;4.70;;
10902;SDS011;5504;47.312;11.060;2022-08-07T17:03:49;4.15;;;3.85;;
10902;SDS011;5504;47.312;11.060;2022-08-07T17:06:34;4.20;;;3.90;;
10902;SDS011;5504;47.312;11.060;2022-08-07T17:09:17;4.05;;;3.75;;
10902;SDS011;5504;47.312;11.060;2022-08-07T17:14:22;4.50;;;4.10;;
10902;SDS011;5504;47.312;11.060;2022-08-07T17:17:12;4.65;;;4.25;;
10902;SDS011;5504;47.312;11.060;2022-08-07T17:20:04;4.63;;;4.22;;
10902;SDS011;5504;47.312;11.060;2022-08-07T17:22:36;4.15;;;3.80;;
10902;SDS011;5504;47.312;11.060;2022-08-07T17:25:19;4.03;;;3.72;;
10902;SDS011;5504;47.312;11.060;2022-08-07T17:28:02;4.45;;;4.05;;
10902;SDS011;5504;47.312;11.060;2022-08-07T17:30:45;4.85;;;4.45;;
10902;SDS011;5504;47.312;11.060;2022-08-07T17:33:23;4.88;;;4.43;;
10902;SDS011;5504;47.312;11.060;2022-08-07T17:38:22;4.07;;;3.80;;
10902;SDS011;5504;47.312;11.060;2022-08-07T17:40:57;4.40;;;4.10;;
10902;SDS011;5504;47.312;11.060;2022-08-07T17:43:32;4.65;;;4.35;;
10902;SDS011;5504;47.312;11.060;2022-08-07T17:46:11;4.72;;;4.32;;
10902;SDS011;5504;47.312;11.060;2022-08-07T17:49:18;4.40;;;4.10;;
10902;SDS011;5504;47.312;11.060;2022-08-07T17:51:56;4.60;;;4.22;;
10902;SDS011;5504;47.312;11.060;2022-08-07T17:57:53;4.50;;;4.15;;
10902;SDS011;5504;47.312;11.060;2022-08-07T17:59:58;4.38;;;4.00;;
10902;SDS011;5504;47.312;11.060;2022-08-07T18:08:03;5.07;;;4.68;;
10902;SDS011;5504;47.312;11.060;2022-08-07T18:16:29;4.70;;;4.30;;
10902;SDS011;5504;47.312;11.060;2022-08-07T18:19:41;4.60;;;4.20;;
10902;SDS011;5504;47.312;11.060;2022-08-07T18:21:55;4.47;;;4.18;;
10902;SDS011;5504;47.312;11.060;2022-08-07T18:24:49;4.78;;;4.38;;
10902;SDS011;5504;47.312;11.060;2022-08-07T18:30:10;5.20;;;4.70;;
10902;SDS011;5504;47.312;11.060;2022-08-07T18:49:03;4.60;;;4.30;;
10902;SDS011;5504;47.312;11.060;2022-08-07T18:51:41;4.57;;;4.28;;
10902;SDS011;5504;47.312;11.060;2022-08-07T18:54:19;4.75;;;4.35;;
10902;SDS011;5504;47.312;11.060;2022-08-07T18:57:17;4.60;;;4.20;;
10902;SDS011;5504;47.312;11.060;2022-08-07T19:05:12;4.68;;;4.38;;
10902;SDS011;5504;47.312;11.060;2022-08-07T19:07:50;4.50;;;4.20;;
10902;SDS011;5504;47.312;11.060;2022-08-07T19:10:30;4.70;;;4.30;;
10902;SDS011;5504;47.312;11.060;2022-08-07T19:19:07;5.00;;;4.60;;
10902;SDS011;5504;47.312;11.060;2022-08-07T19:21:42;5.45;;;4.70;;
10902;SDS011;5504;47.312;11.060;2022-08-07T19:24:33;4.72;;;4.32;;